Time;durP1;ratioP1;P1;durP2;ratioP2;P2;SDS_P1;SDS_P2;PMS_P1;PMS_P2;Temp;Humidity;BMP_temperature;BMP_pressure;BME280_temperature;BME280_humidity;BME280_pressure;Samples;Min_cycle;Max_cycle;Signal;HPM_P1;HPM_P2
2023/07/13 00:01:34;;;;;;;11.90;11.30;;;22.00;95.60;;;;;;5010853;28;20572;-72
2023/07/13 00:04:01;;;;;;;11.83;10.67;;;21.90;95.70;;;;;;5010919;28;20445;-72
2023/07/13 00:06:30;;;;;;;11.23;10.63;;;21.90;95.70;;;;;;5010784;28;20454;-71
2023/07/13 00:08:56;;;;;;;10.90;10.50;;;21.80;96.10;;;;;;5010249;28;20494;-70
2023/07/13 00:11:23;;;;;;;11.77;11.37;;;21.70;96.10;;;;;;5010558;28;20466;-72
2023/07/13 00:13:50;;;;;;;12.20;11.80;;;21.70;96.40;;;;;;5010905;28;20461;-72
2023/07/13 00:16:18;;;;;;;11.30;10.80;;;21.60;96.40;;;;;;5010754;28;20461;-72
2023/07/13 00:18:46;;;;;;;11.23;10.73;;;21.60;96.40;;;;;;5010778;28;20885;-73
2023/07/13 00:21:14;;;;;;;12.53;11.93;;;21.50;96.60;;;;;;5010230;28;20454;-72
2023/07/13 00:23:42;;;;;;;11.40;11.00;;;21.40;96.90;;;;;;5010911;28;20454;-72
2023/07/13 00:26:12;;;;;;;11.40;10.97;;;21.30;96.90;;;;;;5010812;28;20454;-71
2023/07/13 00:28:39;;;;;;;11.50;11.00;;;21.20;97.10;;;;;;5010568;28;20517;-71
2023/07/13 00:31:06;;;;;;;11.30;10.70;;;21.20;97.30;;;;;;5014357;28;20857;-72
2023/07/13 00:33:33;;;;;;;10.87;10.37;;;21.10;97.50;;;;;;5014755;28;20461;-72
2023/07/13 00:36:01;;;;;;;10.77;10.37;;;21.10;97.80;;;;;;5014471;28;20487;-72
2023/07/13 00:38:27;;;;;;;11.40;10.50;;;21.00;97.70;;;;;;5014517;28;20975;-71
2023/07/13 00:40:54;;;;;;;11.63;11.13;;;21.00;97.60;;;;;;5030472;28;20456;-71
2023/07/13 00:43:23;;;;;;;12.00;11.60;;;20.90;97.90;;;;;;5034344;28;20496;-71
2023/07/13 00:46:21;;;;;;;12.53;11.83;;;20.90;98.10;;;;;;5034253;28;20958;-72
2023/07/13 00:48:50;;;;;;;12.43;11.93;;;20.80;98.20;;;;;;5034017;28;20539;-72
2023/07/13 00:51:22;;;;;;;12.97;12.10;;;20.70;98.50;;;;;;5034244;28;20453;-72
2023/07/13 00:53:50;;;;;;;12.13;11.50;;;20.70;98.20;;;;;;5034196;28;20453;-72
2023/07/13 00:56:17;;;;;;;11.83;11.30;;;20.70;98.60;;;;;;5033719;28;21009;-71
2023/07/13 00:58:44;;;;;;;11.93;11.47;;;20.60;98.80;;;;;;5029641;28;20947;-72
2023/07/13 01:01:12;;;;;;;12.27;11.33;;;20.60;98.70;;;;;;5014178;28;20461;-72
2023/07/13 01:03:40;;;;;;;11.77;11.17;;;20.60;98.50;;;;;;5014081;28;20460;-72
2023/07/13 01:06:07;;;;;;;12.10;11.60;;;20.60;98.50;;;;;;5014120;28;20493;-72
2023/07/13 01:08:35;;;;;;;12.23;11.73;;;20.60;98.50;;;;;;5013828;28;20492;-72
2023/07/13 01:11:02;;;;;;;11.50;11.03;;;20.50;98.40;;;;;;5013908;28;20472;-73
2023/07/13 01:13:28;;;;;;;10.87;10.30;;;20.50;98.50;;;;;;5014136;28;20454;-73
2023/07/13 01:16:00;;;;;;;11.40;10.90;;;20.40;98.30;;;;;;5013899;28;20453;-72
2023/07/13 01:18:28;;;;;;;12.93;12.40;;;20.50;98.20;;;;;;5013888;28;20508;-72
2023/07/13 01:20:57;;;;;;;12.20;11.60;;;20.40;98.20;;;;;;5013579;28;20449;-73
2023/07/13 01:23:26;;;;;;;11.60;11.10;;;20.30;98.80;;;;;;5013693;28;20508;-72
2023/07/13 01:25:55;;;;;;;11.30;10.90;;;20.30;98.50;;;;;;5013594;28;20475;-72
2023/07/13 01:28:22;;;;;;;11.20;10.70;;;20.30;98.30;;;;;;5013467;28;20458;-72
2023/07/13 01:30:49;;;;;;;12.60;12.10;;;20.30;98.60;;;;;;5013514;28;20987;-72
2023/07/13 01:33:18;;;;;;;13.20;12.70;;;20.30;98.50;;;;;;5013635;28;20504;-73
2023/07/13 01:35:46;;;;;;;11.60;11.10;;;20.20;98.70;;;;;;5013526;28;20808;-73
2023/07/13 01:38:17;;;;;;;12.27;11.70;;;20.10;98.50;;;;;;5013374;28;20458;-72
2023/07/13 01:40:44;;;;;;;12.77;12.17;;;20.10;98.50;;;;;;5012744;28;20450;-73
2023/07/13 01:43:11;;;;;;;13.77;12.87;;;20.00;98.60;;;;;;5013354;28;20545;-72
2023/07/13 01:45:37;;;;;;;12.20;11.60;;;19.90;99.10;;;;;;5013548;28;20453;-73
2023/07/13 01:48:06;;;;;;;12.30;11.63;;;19.90;99.50;;;;;;5013300;28;20457;-73
2023/07/13 01:50:33;;;;;;;11.63;11.13;;;19.80;99.80;;;;;;5013015;28;20899;-73
2023/07/13 01:53:00;;;;;;;10.83;10.30;;;19.90;99.10;;;;;;5013195;28;20445;-73
2023/07/13 01:55:29;;;;;;;11.23;10.73;;;19.70;99.10;;;;;;5013104;28;20456;-73
2023/07/13 01:57:56;;;;;;;11.30;10.70;;;19.60;99.60;;;;;;5012943;28;20498;-72
2023/07/13 02:00:23;;;;;;;11.70;11.10;;;19.60;99.90;;;;;;5013047;28;20508;-73
2023/07/13 02:02:50;;;;;;;12.70;12.10;;;19.50;99.90;;;;;;5012952;28;20875;-73
2023/07/13 02:05:17;;;;;;;12.70;11.97;;;19.50;99.90;;;;;;5012992;28;20458;-72
2023/07/13 02:07:43;;;;;;;10.60;10.10;;;19.50;99.90;;;;;;5013041;28;20971;-72
2023/07/13 02:10:11;;;;;;;11.00;10.60;;;19.50;99.90;;;;;;5012821;28;20556;-72
2023/07/13 02:12:40;;;;;;;11.67;11.17;;;19.40;99.90;;;;;;5012268;28;20465;-72
2023/07/13 02:15:07;;;;;;;12.10;11.60;;;19.50;99.90;;;;;;5012742;28;20461;-72
2023/07/13 02:17:35;;;;;;;11.40;11.00;;;19.40;99.90;;;;;;5012906;28;20458;-72
2023/07/13 02:20:03;;;;;;;11.67;11.27;;;19.30;99.90;;;;;;5012683;28;20457;-72
2023/07/13 02:22:29;;;;;;;11.33;10.83;;;19.20;99.90;;;;;;5012790;28;20485;-72
2023/07/13 02:24:56;;;;;;;12.00;11.30;;;19.10;99.90;;;;;;5012648;28;20459;-72
2023/07/13 02:27:23;;;;;;;11.90;11.30;;;19.10;99.90;;;;;;5012711;28;20450;-72
2023/07/13 02:29:51;;;;;;;12.13;11.63;;;19.10;99.90;;;;;;5012361;28;20494;-72
2023/07/13 02:32:18;;;;;;;13.17;12.67;;;19.10;99.90;;;;;;5012597;28;20590;-72
2023/07/13 02:34:45;;;;;;;13.40;12.70;;;19.10;99.90;;;;;;5012271;28;20445;-71
2023/07/13 02:37:12;;;;;;;12.07;11.57;;;19.10;99.90;;;;;;5012444;28;20449;-71
2023/07/13 02:39:38;;;;;;;12.10;11.53;;;19.20;99.90;;;;;;5012322;28;20442;-72
2023/07/13 02:42:06;;;;;;;12.40;11.90;;;19.10;99.90;;;;;;5012320;28;20462;-72
2023/07/13 02:44:33;;;;;;;12.00;11.40;;;19.10;99.90;;;;;;5012208;28;20448;-71
2023/07/13 02:47:01;;;;;;;13.50;12.20;;;19.10;99.90;;;;;;5012339;28;20921;-71
2023/07/13 02:49:27;;;;;;;13.23;12.53;;;19.00;99.90;;;;;;5012084;28;20512;-72
2023/07/13 02:51:54;;;;;;;13.13;12.50;;;18.90;99.90;;;;;;5011904;28;20465;-72
2023/07/13 02:54:21;;;;;;;11.80;11.10;;;18.80;99.90;;;;;;5011297;28;20549;-72
2023/07/13 02:56:47;;;;;;;12.27;11.67;;;18.70;99.90;;;;;;5011894;28;20508;-71
2023/07/13 02:59:14;;;;;;;13.30;12.50;;;18.70;99.90;;;;;;5011940;28;20450;-71
2023/07/13 03:01:41;;;;;;;13.00;11.97;;;18.60;99.90;;;;;;5012196;28;20454;-72
2023/07/13 03:04:09;;;;;;;14.07;13.40;;;18.50;99.90;;;;;;5012052;28;20450;-71
2023/07/13 03:06:36;;;;;;;13.80;13.20;;;18.40;99.90;;;;;;5012062;28;20477;-72
2023/07/13 03:09:03;;;;;;;16.33;14.90;;;18.40;99.90;;;;;;5011884;28;20469;-71
2023/07/13 03:11:31;;;;;;;13.67;12.77;;;18.40;99.90;;;;;;5011779;28;20461;-72
2023/07/13 03:13:58;;;;;;;13.60;13.00;;;18.40;99.90;;;;;;5011576;28;20465;-72
2023/07/13 03:16:25;;;;;;;14.10;13.40;;;18.40;99.90;;;;;;5011695;28;20445;-72
2023/07/13 03:18:52;;;;;;;14.23;13.50;;;18.50;99.90;;;;;;5011599;28;20493;-71
2023/07/13 03:21:20;;;;;;;13.90;12.90;;;18.60;99.90;;;;;;5011713;28;20560;-71
2023/07/13 03:23:47;;;;;;;13.90;12.93;;;18.70;99.90;;;;;;5011602;28;20461;-72
2023/07/13 03:26:18;;;;;;;14.20;13.30;;;18.80;99.90;;;;;;5011566;28;20454;-72
2023/07/13 03:28:45;;;;;;;13.77;13.27;;;18.90;99.90;;;;;;5011820;28;20477;-72
2023/07/13 03:31:15;;;;;;;14.70;13.70;;;19.00;99.90;;;;;;5011320;28;20489;-72
2023/07/13 03:33:42;;;;;;;13.73;13.03;;;19.10;99.90;;;;;;5011358;28;20506;-71
2023/07/13 03:36:13;;;;;;;14.03;13.30;;;19.20;99.90;;;;;;5011196;28;20473;-72
2023/07/13 03:38:41;;;;;;;14.33;13.67;;;19.30;99.90;;;;;;5011412;28;20493;-71
2023/07/13 03:41:08;;;;;;;14.10;13.30;;;19.20;99.90;;;;;;5011321;28;20442;-72
2023/07/13 03:43:34;;;;;;;16.23;15.23;;;19.10;99.90;;;;;;5011242;28;20536;-71
2023/07/13 03:46:01;;;;;;;13.90;13.10;;;19.20;99.90;;;;;;5011232;28;20450;-71
2023/07/13 03:48:28;;;;;;;14.40;13.50;;;19.20;99.90;;;;;;5011033;28;20454;-75
2023/07/13 03:50:54;;;;;;;13.57;12.87;;;19.20;99.90;;;;;;5011137;28;20493;-72
2023/07/13 03:53:21;;;;;;;14.00;13.20;;;19.30;99.90;;;;;;5011209;28;20844;-75
2023/07/13 03:55:49;;;;;;;13.50;12.90;;;19.40;99.90;;;;;;5010765;28;20481;-74
2023/07/13 03:58:31;;;;;;;13.13;12.43;;;19.50;99.90;;;;;;5011257;28;20962;-74
2023/07/13 04:00:59;;;;;;;12.87;11.97;;;19.60;99.90;;;;;;5010973;28;20712;-73
2023/07/13 04:03:27;;;;;;;15.13;14.43;;;19.70;99.90;;;;;;5010750;28;20994;-75
2023/07/13 04:05:54;;;;;;;13.07;12.47;;;19.80;99.90;;;;;;5010639;28;20457;-74
2023/07/13 04:08:21;;;;;;;13.60;12.90;;;19.70;99.90;;;;;;5010854;28;20872;-72
2023/07/13 04:10:49;;;;;;;14.60;13.57;;;19.70;99.90;;;;;;5010583;28;20521;-72
2023/07/13 04:13:16;;;;;;;13.60;13.00;;;19.70;99.90;;;;;;5010946;28;20458;-72
2023/07/13 04:15:44;;;;;;;13.90;13.20;;;19.80;99.90;;;;;;5009981;28;20462;-72
2023/07/13 04:18:10;;;;;;;13.43;12.67;;;19.80;99.90;;;;;;5009696;28;20458;-72
2023/07/13 04:20:37;;;;;;;14.33;13.37;;;19.80;99.90;;;;;;5009883;28;20963;-72
2023/07/13 04:23:04;;;;;;;14.17;13.40;;;19.90;99.90;;;;;;5001546;28;20453;-72
2023/07/13 04:25:30;;;;;;;13.80;13.10;;;19.90;99.90;;;;;;5010570;28;20454;-72
2023/07/13 04:27:59;;;;;;;14.20;13.23;;;19.90;99.90;;;;;;5010018;28;20468;-72
2023/07/13 04:30:26;;;;;;;13.23;12.63;;;20.00;99.90;;;;;;5009918;28;20490;-72
2023/07/13 04:32:53;;;;;;;14.57;13.50;;;20.10;99.90;;;;;;5005770;28;20480;-72
2023/07/13 04:35:21;;;;;;;14.87;13.97;;;20.10;99.90;;;;;;5010309;28;20514;-72
2023/07/13 04:37:50;;;;;;;14.73;13.80;;;20.20;99.90;;;;;;5011109;28;20466;-72
2023/07/13 04:40:17;;;;;;;13.97;13.40;;;20.10;99.90;;;;;;5010255;28;20501;-72
2023/07/13 04:42:44;;;;;;;14.70;14.03;;;20.10;99.90;;;;;;5009915;28;20454;-72
2023/07/13 04:45:12;;;;;;;16.93;15.67;;;20.10;99.90;;;;;;5010628;28;20457;-73
2023/07/13 04:47:39;;;;;;;14.63;13.60;;;20.10;99.90;;;;;;5009897;28;20458;-72
2023/07/13 04:50:07;;;;;;;13.80;13.20;;;20.10;99.90;;;;;;5009978;28;20496;-73
2023/07/13 04:52:34;;;;;;;15.73;14.53;;;20.10;99.90;;;;;;5009828;28;20465;-72
2023/07/13 04:55:01;;;;;;;14.00;13.20;;;20.10;99.90;;;;;;5010105;28;20956;-72
2023/07/13 04:57:28;;;;;;;13.30;12.57;;;20.10;99.90;;;;;;5009700;28;20903;-72
2023/07/13 04:59:55;;;;;;;14.97;13.97;;;20.10;99.90;;;;;;5009775;28;20481;-71
2023/07/13 05:02:23;;;;;;;14.20;13.50;;;20.10;99.90;;;;;;5004725;28;20477;-72
2023/07/13 05:04:50;;;;;;;14.53;13.73;;;20.20;99.90;;;;;;5009699;28;20481;-72
2023/07/13 05:07:16;;;;;;;14.50;13.67;;;20.20;99.90;;;;;;5009849;28;20466;-72
2023/07/13 05:09:43;;;;;;;15.60;14.80;;;20.30;99.90;;;;;;5010297;28;20454;-72
2023/07/13 05:12:10;;;;;;;16.03;14.73;;;20.50;99.90;;;;;;5010428;28;20461;-73
2023/07/13 05:14:37;;;;;;;14.00;13.20;;;20.70;99.90;;;;;;5010233;28;20976;-73
2023/07/13 05:17:04;;;;;;;14.50;13.60;;;20.70;99.90;;;;;;5011781;28;21150;-73
2023/07/13 05:19:33;;;;;;;13.43;12.57;;;21.00;99.60;;;;;;5013263;28;20454;-73
2023/07/13 05:22:00;;;;;;;14.00;13.10;;;21.00;97.50;;;;;;5013732;28;20534;-72
2023/07/13 05:24:27;;;;;;;13.10;12.60;;;21.40;97.40;;;;;;5013354;28;20458;-73
2023/07/13 05:26:54;;;;;;;14.00;13.30;;;21.70;95.10;;;;;;5013185;28;20540;-73
2023/07/13 05:29:21;;;;;;;14.77;13.63;;;21.80;94.50;;;;;;5013779;28;20481;-73
2023/07/13 05:31:47;;;;;;;13.80;13.20;;;22.00;94.20;;;;;;5013497;28;20497;-73
2023/07/13 05:34:14;;;;;;;13.90;13.20;;;22.20;93.60;;;;;;5012115;28;20481;-73
2023/07/13 05:36:42;;;;;;;14.50;13.40;;;22.40;93.10;;;;;;5012848;28;20532;-72
2023/07/13 05:39:09;;;;;;;13.50;12.80;;;22.60;91.90;;;;;;5013032;28;20469;-73
2023/07/13 05:41:36;;;;;;;14.23;13.53;;;22.80;91.60;;;;;;5013283;28;20457;-72
2023/07/13 05:44:03;;;;;;;13.77;12.60;;;22.90;91.50;;;;;;5012877;28;20458;-73
2023/07/13 05:46:30;;;;;;;12.93;12.30;;;23.00;91.50;;;;;;5012913;28;20465;-73
2023/07/13 05:48:57;;;;;;;13.70;13.10;;;23.00;91.10;;;;;;5012798;28;20464;-73
2023/07/13 05:51:24;;;;;;;14.20;13.40;;;22.90;91.30;;;;;;5013357;28;20493;-74
2023/07/13 05:53:52;;;;;;;12.57;12.00;;;22.70;91.20;;;;;;5012891;28;20873;-73
2023/07/13 05:56:18;;;;;;;13.63;13.03;;;22.60;91.60;;;;;;5012630;28;20544;-73
2023/07/13 05:58:45;;;;;;;12.83;12.20;;;22.60;91.90;;;;;;5012897;28;20560;-72
2023/07/13 06:01:15;;;;;;;14.00;13.43;;;22.70;91.40;;;;;;5012498;28;20450;-71
2023/07/13 06:03:42;;;;;;;12.80;12.30;;;22.60;92.00;;;;;;5007361;28;20470;-73
2023/07/13 06:06:10;;;;;;;15.07;14.40;;;22.60;91.30;;;;;;5012402;28;20458;-72
2023/07/13 06:08:37;;;;;;;13.67;12.97;;;22.60;90.70;;;;;;5012641;28;20879;-73
2023/07/13 06:11:07;;;;;;;13.17;12.47;;;22.40;90.80;;;;;;5012259;28;20481;-72
2023/07/13 06:13:34;;;;;;;14.40;13.70;;;22.40;90.80;;;;;;5012452;28;21027;-73
2023/07/13 06:16:04;;;;;;;15.70;14.80;;;22.30;91.00;;;;;;5012385;28;20457;-74
2023/07/13 06:18:30;;;;;;;13.03;12.27;;;22.60;91.50;;;;;;5012783;28;20515;-75
2023/07/13 06:20:57;;;;;;;13.93;13.03;;;23.30;90.10;;;;;;5009093;28;20450;-75
2023/07/13 06:23:24;;;;;;;14.97;14.30;;;24.40;86.60;;;;;;5003552;28;20450;-74
2023/07/13 06:25:51;;;;;;;14.50;13.90;;;25.20;83.60;;;;;;5003285;28;20450;-74
2023/07/13 06:28:20;;;;;;;14.33;13.63;;;26.20;79.80;;;;;;5008255;28;20461;-74
2023/07/13 06:30:46;;;;;;;15.10;14.10;;;26.40;77.00;;;;;;5002821;28;20489;-74
2023/07/13 06:33:13;;;;;;;13.93;13.10;;;26.70;74.80;;;;;;5002590;28;20455;-74
2023/07/13 06:35:40;;;;;;;14.07;13.10;;;27.40;74.00;;;;;;5000993;28;20996;-75
2023/07/13 06:38:06;;;;;;;14.90;14.10;;;27.80;71.80;;;;;;5002919;28;20963;-75
2023/07/13 06:40:33;;;;;;;13.50;12.80;;;28.30;69.70;;;;;;5002377;28;21185;-75
2023/07/13 06:43:00;;;;;;;13.80;13.20;;;28.60;67.10;;;;;;5003192;28;20454;-74
2023/07/13 06:45:28;;;;;;;15.37;14.67;;;28.40;68.60;;;;;;5005701;28;20484;-76
2023/07/13 06:47:54;;;;;;;15.10;14.40;;;29.20;65.30;;;;;;5001159;28;20937;-76
2023/07/13 06:50:21;;;;;;;13.50;13.00;;;28.60;64.70;;;;;;5005832;28;20940;-76
2023/07/13 06:52:48;;;;;;;13.83;13.20;;;29.20;64.30;;;;;;5004326;28;20462;-75
2023/07/13 06:55:15;;;;;;;14.13;13.27;;;29.60;61.20;;;;;;5010389;28;20511;-75
2023/07/13 06:57:42;;;;;;;14.83;13.97;;;29.90;61.50;;;;;;5011706;28;21022;-75
2023/07/13 07:00:09;;;;;;;14.30;13.70;;;30.00;58.60;;;;;;5012013;28;20450;-75
2023/07/13 07:02:37;;;;;;;13.90;13.40;;;29.70;59.50;;;;;;5011862;28;20453;-76
2023/07/13 07:05:05;;;;;;;12.40;11.90;;;30.20;58.40;;;;;;5011700;28;20832;-77
2023/07/13 07:07:31;;;;;;;13.50;13.00;;;30.50;56.40;;;;;;5012058;28;20458;-76
2023/07/13 07:09:58;;;;;;;13.97;13.37;;;30.60;55.20;;;;;;5012028;28;20456;-77
2023/07/13 07:12:25;;;;;;;12.63;12.10;;;30.50;54.10;;;;;;5011764;28;20513;-77
2023/07/13 07:14:51;;;;;;;14.53;13.93;;;29.40;55.70;;;;;;5011875;28;20454;-77
2023/07/13 07:17:18;;;;;;;14.00;13.50;;;29.30;56.20;;;;;;5011910;28;20963;-78
2023/07/13 07:19:46;;;;;;;14.47;13.77;;;29.40;55.50;;;;;;5011670;28;20450;-78
2023/07/13 07:22:13;;;;;;;12.87;12.47;;;29.40;56.10;;;;;;5011506;28;20453;-78
2023/07/13 07:24:40;;;;;;;13.17;12.57;;;29.90;55.20;;;;;;5011788;28;20884;-76
2023/07/13 07:27:07;;;;;;;13.07;12.37;;;30.70;55.20;;;;;;5006242;28;20474;-76
2023/07/13 07:29:34;;;;;;;13.90;13.30;;;30.80;52.10;;;;;;5010229;28;20462;-77
2023/07/13 07:32:01;;;;;;;13.10;12.60;;;31.00;52.10;;;;;;5007275;28;20985;-77
2023/07/13 07:34:27;;;;;;;12.90;12.30;;;31.50;50.90;;;;;;5000201;28;20439;-76
2023/07/13 07:36:57;;;;;;;13.43;12.60;;;31.60;51.00;;;;;;5000543;28;20515;-76
2023/07/13 07:39:24;;;;;;;14.50;13.60;;;32.10;50.50;;;;;;5004370;28;20457;-77
2023/07/13 07:41:51;;;;;;;13.53;12.93;;;32.20;49.60;;;;;;5005849;28;20454;-77
2023/07/13 07:44:18;;;;;;;13.37;12.80;;;32.30;49.20;;;;;;5003194;28;20452;-77
2023/07/13 07:46:44;;;;;;;14.50;13.57;;;32.20;48.80;;;;;;5002073;28;20466;-77
2023/07/13 07:49:11;;;;;;;13.43;12.90;;;32.30;48.80;;;;;;5005275;28;20460;-77
2023/07/13 07:51:38;;;;;;;13.10;12.40;;;32.10;47.40;;;;;;5006242;28;20486;-77
2023/07/13 07:54:06;;;;;;;13.67;13.00;;;32.50;48.00;;;;;;5004906;28;21178;-77
2023/07/13 07:56:33;;;;;;;13.90;13.27;;;32.30;48.20;;;;;;5011023;28;20894;-76
2023/07/13 07:59:00;;;;;;;13.63;13.03;;;32.10;48.20;;;;;;5010973;28;20811;-77
2023/07/13 08:01:27;;;;;;;12.90;12.30;;;32.60;47.10;;;;;;5011054;28;20450;-76
2023/07/13 08:03:53;;;;;;;13.47;12.83;;;32.40;46.80;;;;;;5010998;28;20799;-77
2023/07/13 08:06:21;;;;;;;14.10;13.50;;;32.20;46.70;;;;;;5011038;28;20457;-77
2023/07/13 08:08:48;;;;;;;13.00;12.40;;;32.10;47.10;;;;;;5010902;28;20454;-77
2023/07/13 08:11:17;;;;;;;14.00;13.33;;;32.30;47.40;;;;;;5010798;28;21239;-77
2023/07/13 08:13:44;;;;;;;14.03;13.53;;;32.60;46.40;;;;;;5010968;28;20454;-77
2023/07/13 08:16:11;;;;;;;13.13;12.57;;;32.10;45.70;;;;;;5010819;28;20504;-78
2023/07/13 08:18:38;;;;;;;12.90;12.30;;;32.20;45.20;;;;;;5010801;28;20523;-78
2023/07/13 08:21:06;;;;;;;14.40;13.80;;;32.60;45.10;;;;;;5011004;28;20609;-78
2023/07/13 08:23:33;;;;;;;13.63;13.07;;;32.90;44.30;;;;;;5010645;28;20454;-78
2023/07/13 08:26:01;;;;;;;12.80;12.30;;;32.90;43.70;;;;;;5010908;28;20481;-78
2023/07/13 08:28:29;;;;;;;12.60;12.00;;;32.20;43.80;;;;;;5010781;28;20461;-77
2023/07/13 08:31:00;;;;;;;12.83;12.13;;;32.30;44.20;;;;;;5010655;28;20458;-77
2023/07/13 08:33:27;;;;;;;13.60;13.00;;;32.60;44.20;;;;;;5010490;28;20457;-77
2023/07/13 08:35:54;;;;;;;12.80;12.30;;;33.10;44.20;;;;;;5010613;28;21039;-77
2023/07/13 08:38:20;;;;;;;15.63;15.03;;;33.60;42.70;;;;;;5010629;28;20453;-77
2023/07/13 08:40:52;;;;;;;12.30;11.70;;;33.50;42.50;;;;;;5007601;28;20944;-77
2023/07/13 08:43:23;;;;;;;13.70;13.00;;;33.10;42.30;;;;;;5004206;28;20461;-77
2023/07/13 08:45:58;;;;;;;13.90;13.30;;;33.20;42.10;;;;;;5007160;28;20437;-76
2023/07/13 08:48:27;;;;;;;13.13;12.73;;;33.50;42.00;;;;;;5006445;28;20452;-76
2023/07/13 08:50:58;;;;;;;14.80;14.10;;;34.20;41.60;;;;;;5010731;28;20453;-82
2023/07/13 08:53:31;;;;;;;12.97;12.20;;;33.60;42.00;;;;;;5013335;28;20878;-81
2023/07/13 08:56:00;;;;;;;12.73;12.20;;;33.70;42.10;;;;;;5014095;28;20458;-84
2023/07/13 08:58:29;;;;;;;13.13;12.53;;;33.70;41.30;;;;;;5013957;28;20449;-83
2023/07/13 09:01:06;;;;;;;12.70;12.20;;;33.80;42.70;;;;;;5012183;28;20453;-83
2023/07/13 09:03:41;;;;;;;12.87;12.20;;;33.70;41.40;;;;;;5013895;28;20449;-83
2023/07/13 09:06:14;;;;;;;13.67;13.00;;;33.80;41.80;;;;;;5013978;28;20456;-83
2023/07/13 09:08:52;;;;;;;14.20;13.23;;;33.70;41.10;;;;;;5013976;28;20430;-83
2023/07/13 09:11:36;;;;;;;15.13;14.53;;;33.20;41.90;;;;;;5013722;28;20481;-83
2023/07/13 09:14:14;;;;;;;30.03;14.47;;;32.90;42.20;;;;;;5013676;28;20454;-84
2023/07/13 09:16:43;;;;;;;14.00;13.33;;;32.20;43.10;;;;;;5013655;28;20453;-84
2023/07/13 09:19:17;;;;;;;13.37;12.80;;;32.50;43.50;;;;;;5013570;28;20454;-84
2023/07/13 09:21:45;;;;;;;14.33;13.83;;;32.90;43.70;;;;;;5013801;28;20445;-84
2023/07/13 09:24:30;;;;;;;13.00;12.30;;;33.50;42.60;;;;;;5013471;28;20450;-84
2023/07/13 09:26:58;;;;;;;13.70;13.20;;;33.80;41.50;;;;;;5013644;28;20476;-83
2023/07/13 09:29:29;;;;;;;13.00;12.30;;;33.20;42.00;;;;;;5013348;28;20549;-83
2023/07/13 09:32:05;;;;;;;13.33;12.73;;;32.50;42.40;;;;;;5013451;28;20860;-81
2023/07/13 09:34:34;;;;;;;13.10;12.50;;;32.20;43.90;;;;;;5013402;28;20508;-80
2023/07/13 09:37:00;;;;;;;12.40;12.00;;;31.50;44.00;;;;;;5013516;28;20454;-82
2023/07/13 09:39:30;;;;;;;14.80;14.07;;;31.70;44.40;;;;;;5013302;28;20461;-83
2023/07/13 09:42:06;;;;;;;13.50;12.93;;;32.50;44.40;;;;;;5013313;28;20540;-82
2023/07/13 09:44:36;;;;;;;13.47;12.70;;;33.20;43.10;;;;;;5013288;28;20454;-83
2023/07/13 09:47:17;;;;;;;13.90;13.40;;;34.10;41.30;;;;;;5013216;28;20465;-83
2023/07/13 09:49:44;;;;;;;16.07;15.10;;;34.50;39.70;;;;;;5012642;28;20549;-83
2023/07/13 09:52:15;;;;;;;14.27;13.60;;;35.10;40.40;;;;;;5013132;28;20525;-83
2023/07/13 09:54:48;;;;;;;14.83;14.23;;;36.00;38.70;;;;;;5013036;28;20462;-82
2023/07/13 09:57:17;;;;;;;14.67;13.97;;;35.30;39.10;;;;;;5012803;28;20489;-81
2023/07/13 09:59:46;;;;;;;15.77;15.10;;;35.00;39.40;;;;;;5012757;28;20466;-74
2023/07/13 10:02:29;;;;;;;15.90;15.10;;;34.70;39.80;;;;;;5012449;28;20481;-79
2023/07/13 10:05:01;;;;;;;14.97;14.27;;;33.20;41.40;;;;;;5014640;28;20453;-80
2023/07/13 10:07:28;;;;;;;14.77;14.03;;;33.20;41.70;;;;;;5012734;28;20454;-80
2023/07/13 10:09:56;;;;;;;14.10;13.60;;;33.20;41.90;;;;;;5012571;28;20465;-80
2023/07/13 10:12:24;;;;;;;14.03;13.43;;;33.80;40.80;;;;;;5012714;28;20960;-81
2023/07/13 10:14:55;;;;;;;14.30;13.67;;;33.20;40.90;;;;;;5012557;28;20936;-81
2023/07/13 10:17:31;;;;;;;14.17;13.50;;;33.60;41.10;;;;;;5012845;28;20524;-81
2023/07/13 10:20:02;;;;;;;14.40;13.80;;;33.90;40.20;;;;;;5012592;28;20476;-81
2023/07/13 10:22:37;;;;;;;15.43;14.50;;;33.80;40.70;;;;;;5012404;28;20870;-81
2023/07/13 10:25:18;;;;;;;14.57;13.63;;;33.50;41.50;;;;;;5012258;28;20824;-82
2023/07/13 10:27:45;;;;;;;14.50;13.90;;;33.40;41.10;;;;;;5012201;28;20548;-80
2023/07/13 10:30:16;;;;;;;13.60;13.00;;;33.20;41.30;;;;;;5012010;28;20450;-80
2023/07/13 10:32:44;;;;;;;13.13;12.53;;;33.50;40.60;;;;;;5012048;28;20521;-80
2023/07/13 10:35:13;;;;;;;13.27;12.87;;;34.10;41.10;;;;;;5012270;28;20477;-80
2023/07/13 10:37:50;;;;;;;15.20;13.63;;;34.40;40.20;;;;;;5012125;28;20480;-79
2023/07/13 10:40:22;;;;;;;13.93;13.40;;;34.30;39.40;;;;;;5012354;28;20445;-80
2023/07/13 10:42:53;;;;;;;15.07;14.37;;;34.10;40.20;;;;;;5012284;28;20559;-78
2023/07/13 10:45:22;;;;;;;15.87;15.17;;;33.40;40.60;;;;;;5012140;28;20454;-79
2023/07/13 10:47:53;;;;;;;14.50;14.00;;;32.80;42.50;;;;;;5011893;28;20450;-78
2023/07/13 10:50:22;;;;;;;14.77;13.90;;;33.30;41.10;;;;;;5012426;28;20652;-80
2023/07/13 10:52:51;;;;;;;14.20;13.70;;;33.90;40.10;;;;;;5011867;28;20827;-79
2023/07/13 10:55:36;;;;;;;14.70;13.93;;;34.20;39.70;;;;;;5011945;28;20457;-78
2023/07/13 10:58:11;;;;;;;15.30;14.40;;;33.90;40.20;;;;;;5011898;28;20971;-78
2023/07/13 11:00:49;;;;;;;12.93;12.53;;;33.40;41.40;;;;;;5011744;28;20457;-78
2023/07/13 11:03:21;;;;;;;14.40;13.60;;;33.30;40.60;;;;;;5011747;28;20541;-79
2023/07/13 11:05:51;;;;;;;13.93;13.00;;;33.70;40.50;;;;;;5011806;28;20457;-79
2023/07/13 11:08:22;;;;;;;13.80;13.30;;;34.50;39.20;;;;;;5012143;28;20446;-80
2023/07/13 11:10:54;;;;;;;14.27;13.67;;;34.50;39.50;;;;;;5011795;28;20461;-79
2023/07/13 11:13:57;;;;;;;14.43;13.80;;;35.20;38.70;;;;;;5011220;28;20851;-80
2023/07/13 11:16:46;;;;;;;14.43;13.73;;;35.50;37.50;;;;;;5011569;28;21186;-80
2023/07/13 11:19:37;;;;;;;13.73;13.03;;;34.80;38.10;;;;;;5000833;28;20486;-80
2023/07/13 11:22:12;;;;;;;14.27;13.77;;;36.00;38.50;;;;;;5011475;28;20849;-80
2023/07/13 11:25:00;;;;;;;14.37;13.87;;;36.40;36.60;;;;;;5011596;28;20452;-81
2023/07/13 11:27:40;;;;;;;14.80;14.00;;;36.00;37.00;;;;;;5011378;28;20802;-79
2023/07/13 11:30:31;;;;;;;12.57;11.97;;;35.10;37.70;;;;;;5011544;28;20449;-80
2023/07/13 11:33:13;;;;;;;14.50;14.00;;;34.50;39.00;;;;;;5011274;28;20482;-79
2023/07/13 11:35:45;;;;;;;15.40;14.73;;;34.50;39.20;;;;;;5011191;28;20506;-79
2023/07/13 11:38:16;;;;;;;14.37;13.77;;;34.50;38.90;;;;;;5011051;28;20450;-80
2023/07/13 11:40:46;;;;;;;13.03;12.53;;;34.90;38.50;;;;;;5011238;28;20445;-79
2023/07/13 11:43:16;;;;;;;14.83;14.03;;;35.10;38.00;;;;;;5011022;28;20454;-79
2023/07/13 11:45:43;;;;;;;13.53;13.03;;;35.60;37.30;;;;;;5010986;28;20916;-81
2023/07/13 11:48:21;;;;;;;14.47;13.57;;;35.90;36.70;;;;;;5010931;28;20508;-82
2023/07/13 11:50:54;;;;;;;14.07;13.47;;;36.90;35.30;;;;;;5011160;28;20775;-81
2023/07/13 11:53:21;;;;;;;15.30;14.80;;;36.30;36.20;;;;;;5011074;28;21007;-80
2023/07/13 11:55:49;;;;;;;15.50;14.90;;;36.50;36.70;;;;;;5010843;28;20941;-79
2023/07/13 11:58:21;;;;;;;15.23;14.27;;;37.50;35.40;;;;;;5010892;28;20466;-79
2023/07/13 12:00:49;;;;;;;14.80;14.30;;;37.70;34.50;;;;;;5010818;28;20454;-78
2023/07/13 12:03:23;;;;;;;14.93;13.77;;;35.90;36.00;;;;;;5010776;28;20454;-79
2023/07/13 12:06:05;;;;;;;14.27;13.57;;;34.50;37.20;;;;;;5010815;28;20552;-79
2023/07/13 12:08:38;;;;;;;14.80;14.20;;;34.00;38.70;;;;;;5010940;28;20940;-80
2023/07/13 12:11:10;;;;;;;14.53;13.67;;;33.00;40.00;;;;;;5010780;28;20457;-79
2023/07/13 12:13:38;;;;;;;13.10;12.60;;;33.80;40.00;;;;;;5010468;28;20490;-80
2023/07/13 12:16:15;;;;;;;14.33;13.53;;;34.10;38.90;;;;;;5011038;28;20449;-79
2023/07/13 12:18:46;;;;;;;13.70;13.00;;;33.20;39.30;;;;;;5010556;28;20453;-79
2023/07/13 12:21:18;;;;;;;14.27;13.57;;;32.20;40.30;;;;;;5010747;28;20529;-79
2023/07/13 12:23:49;;;;;;;14.70;14.20;;;32.20;40.60;;;;;;5010727;28;20445;-80
2023/07/13 12:26:17;;;;;;;15.03;14.27;;;33.00;40.00;;;;;;5010425;28;20750;-79
2023/07/13 12:28:47;;;;;;;14.57;13.97;;;33.20;38.80;;;;;;5010623;28;21051;-80
2023/07/13 12:31:34;;;;;;;14.50;13.70;;;33.60;39.40;;;;;;5010617;28;20842;-79
2023/07/13 12:34:03;;;;;;;15.10;14.30;;;33.30;39.60;;;;;;5010188;28;20500;-78
2023/07/13 12:36:36;;;;;;;15.17;14.10;;;33.10;40.10;;;;;;5010429;28;20476;-80
2023/07/13 12:39:14;;;;;;;14.13;13.63;;;33.40;39.90;;;;;;5010549;28;20453;-80